Time;durP1;ratioP1;P1;durP2;ratioP2;P2;SDS_P1;SDS_P2;PMS_P1;PMS_P2;Temp;Humidity;BMP_temperature;BMP_pressure;BME280_temperature;BME280_humidity;BME280_pressure;Samples;Min_cycle;Max_cycle;Signal;HPM_P1;HPM_P2
2023/06/01 00:02:14;;;;;;;8.90;3.58;;;14.40;96.90;;;;;;5051292;28;20505;-69
2023/06/01 00:04:40;;;;;;;11.90;3.78;;;14.60;96.40;;;;;;5052358;28;20104;-69
2023/06/01 00:07:10;;;;;;;15.45;3.78;;;14.70;96.10;;;;;;5052204;28;20455;-68
2023/06/01 00:09:36;;;;;;;10.70;4.20;;;14.60;96.20;;;;;;5052230;28;20029;-69
2023/06/01 00:12:03;;;;;;;11.45;4.05;;;14.60;96.30;;;;;;5052532;28;20082;-67
2023/06/01 00:14:28;;;;;;;10.15;4.03;;;14.70;96.20;;;;;;5051994;28;20083;-68
2023/06/01 00:16:56;;;;;;;13.45;3.33;;;14.50;96.30;;;;;;5051989;28;20028;-68
2023/06/01 00:19:22;;;;;;;12.80;4.07;;;14.40;96.70;;;;;;5052028;28;20106;-67
2023/06/01 00:21:48;;;;;;;13.60;4.05;;;14.40;96.60;;;;;;5051906;28;20037;-69
2023/06/01 00:24:13;;;;;;;16.85;4.55;;;14.50;96.30;;;;;;5052202;28;20347;-69
2023/06/01 00:26:39;;;;;;;12.68;4.45;;;14.70;96.00;;;;;;5051763;28;20043;-68
2023/06/01 00:29:04;;;;;;;11.73;4.63;;;14.40;96.50;;;;;;5051820;28;20486;-69
2023/06/01 00:31:30;;;;;;;14.02;4.53;;;14.50;96.50;;;;;;5050490;28;20057;-68
2023/06/01 00:33:56;;;;;;;16.33;4.80;;;14.60;96.40;;;;;;5051849;28;20336;-68
2023/06/01 00:36:21;;;;;;;10.38;3.80;;;14.70;95.90;;;;;;5050888;28;20111;-69
2023/06/01 00:38:47;;;;;;;14.85;4.03;;;14.80;95.80;;;;;;5051600;28;20108;-69
2023/06/01 00:41:13;;;;;;;9.45;3.85;;;14.70;96.00;;;;;;5051478;28;20417;-68
2023/06/01 00:43:38;;;;;;;9.02;3.53;;;14.60;95.90;;;;;;5051487;28;20044;-68
2023/06/01 00:46:05;;;;;;;18.05;4.38;;;14.70;96.00;;;;;;5051285;28;20029;-68
2023/06/01 00:48:31;;;;;;;14.23;4.60;;;14.40;96.50;;;;;;5050387;28;20064;-68
2023/06/01 00:50:58;;;;;;;15.93;4.32;;;14.50;96.40;;;;;;5052413;28;20056;-69
2023/06/01 00:53:25;;;;;;;14.02;4.32;;;14.40;96.40;;;;;;5051327;28;20029;-68
2023/06/01 00:55:51;;;;;;;12.95;5.10;;;14.50;96.50;;;;;;5051178;28;20479;-68
2023/06/01 00:58:17;;;;;;;14.77;5.90;;;14.50;96.60;;;;;;5051373;28;20028;-69
2023/06/01 01:00:42;;;;;;;12.88;4.85;;;14.60;96.30;;;;;;5050977;28;20036;-68
2023/06/01 01:03:09;;;;;;;12.90;3.90;;;14.80;95.90;;;;;;5050787;28;20025;-69
2023/06/01 01:05:36;;;;;;;9.40;3.63;;;14.90;95.80;;;;;;5051060;28;20029;-68
2023/06/01 01:08:30;;;;;;;15.10;4.60;;;14.70;96.00;;;;;;5051144;28;20029;-69
2023/06/01 01:11:07;;;;;;;8.48;3.55;;;14.80;95.90;;;;;;5049916;28;20115;-68
2023/06/01 01:13:55;;;;;;;11.80;4.30;;;15.00;95.60;;;;;;5051016;28;20546;-70
2023/06/01 01:16:31;;;;;;;11.98;4.15;;;14.80;95.80;;;;;;5050837;28;20061;-69
2023/06/01 01:19:16;;;;;;;14.52;4.00;;;14.80;96.00;;;;;;5050999;28;20043;-69
2023/06/01 01:21:47;;;;;;;10.07;4.75;;;14.70;96.00;;;;;;5050969;28;20021;-70
2023/06/01 01:24:48;;;;;;;14.65;4.55;;;14.90;95.80;;;;;;5051346;28;20120;-69
2023/06/01 01:27:24;;;;;;;11.90;4.10;;;15.00;95.40;;;;;;5069753;28;20518;-68
2023/06/01 01:29:54;;;;;;;21.80;5.03;;;15.00;95.40;;;;;;5050656;28;20099;-69
2023/06/01 01:32:22;;;;;;;10.13;4.68;;;15.00;95.20;;;;;;5050626;28;20414;-68
2023/06/01 01:34:50;;;;;;;14.25;4.50;;;15.00;95.50;;;;;;5049496;28;20033;-69
2023/06/01 01:37:15;;;;;;;12.45;4.53;;;15.10;95.40;;;;;;5030878;28;20037;-68
2023/06/01 01:39:41;;;;;;;13.18;4.57;;;15.00;95.60;;;;;;5030752;28;20029;-69
2023/06/01 01:42:07;;;;;;;13.43;4.70;;;14.90;95.90;;;;;;5031226;28;20087;-69
2023/06/01 01:44:33;;;;;;;14.60;5.35;;;14.90;95.90;;;;;;5030862;28;20033;-68
2023/06/01 01:47:09;;;;;;;14.13;4.55;;;15.00;95.80;;;;;;5030957;28;20107;-70
2023/06/01 01:49:49;;;;;;;17.58;4.32;;;14.90;95.80;;;;;;5031093;28;20180;-69
2023/06/01 01:52:21;;;;;;;11.65;4.15;;;15.10;95.20;;;;;;5030985;28;20044;-70
2023/06/01 01:54:49;;;;;;;13.07;3.97;;;15.00;95.50;;;;;;5031001;28;20033;-68
2023/06/01 01:57:16;;;;;;;;;;;14.70;95.90;;;;;;5032093;28;20097;-70
2023/06/01 01:59:42;;;;;;;13.70;4.97;;;14.80;96.10;;;;;;5030706;28;19936;-68
2023/06/01 02:02:09;;;;;;;12.30;4.75;;;14.60;96.30;;;;;;5030815;28;20479;-69
2023/06/01 02:04:47;;;;;;;10.75;4.38;;;14.60;96.30;;;;;;5030697;28;20037;-69
2023/06/01 02:07:13;;;;;;;15.07;4.50;;;14.80;96.00;;;;;;5030895;28;20022;-68
2023/06/01 02:09:40;;;;;;;13.70;4.45;;;14.80;96.20;;;;;;5030693;28;20031;-69
2023/06/01 02:12:06;;;;;;;17.65;5.10;;;14.80;96.00;;;;;;5031153;28;20440;-68
2023/06/01 02:14:32;;;;;;;15.02;4.72;;;14.80;96.10;;;;;;5033714;28;20103;-69
2023/06/01 02:17:00;;;;;;;15.23;5.18;;;14.60;96.40;;;;;;5034718;28;20040;-69
2023/06/01 02:19:26;;;;;;;16.00;5.15;;;14.40;96.80;;;;;;5034689;28;20404;-69
2023/06/01 02:21:52;;;;;;;11.98;4.05;;;14.40;97.00;;;;;;5034476;28;20028;-68
2023/06/01 02:24:17;;;;;;;16.20;5.30;;;14.50;96.90;;;;;;5034807;28;20407;-69
2023/06/01 02:26:45;;;;;;;17.15;4.40;;;14.50;96.80;;;;;;5034260;28;20037;-69
2023/06/01 02:29:12;;;;;;;15.43;4.78;;;14.70;96.60;;;;;;5034151;28;20111;-68
2023/06/01 02:31:38;;;;;;;19.35;4.95;;;14.80;96.30;;;;;;5034262;28;20463;-69
2023/06/01 02:34:04;;;;;;;13.57;5.25;;;14.80;96.50;;;;;;5032918;28;20038;-68
2023/06/01 02:36:31;;;;;;;14.48;5.30;;;14.30;97.00;;;;;;5034195;28;20025;-69
2023/06/01 02:38:57;;;;;;;9.57;4.88;;;14.10;97.40;;;;;;5034612;28;20068;-69
2023/06/01 02:41:24;;;;;;;16.05;5.22;;;14.30;97.50;;;;;;5034191;28;20486;-70
2023/06/01 02:43:50;;;;;;;13.80;4.60;;;14.50;97.10;;;;;;5034004;28;20075;-69
2023/06/01 02:46:17;;;;;;;17.15;5.03;;;14.10;97.50;;;;;;5034287;28;20036;-68
2023/06/01 02:48:43;;;;;;;14.85;5.30;;;14.00;97.60;;;;;;5033952;28;20456;-71
2023/06/01 02:51:09;;;;;;;11.75;5.05;;;14.10;97.50;;;;;;5034498;28;20471;-69
2023/06/01 02:53:35;;;;;;;13.98;4.10;;;14.10;97.60;;;;;;5034036;28;20371;-69
2023/06/01 02:56:02;;;;;;;15.75;4.45;;;14.20;97.20;;;;;;5034009;28;20053;-69
2023/06/01 02:58:29;;;;;;;13.48;4.82;;;14.10;97.40;;;;;;5034034;28;20041;-68
2023/06/01 03:00:57;;;;;;;16.53;4.73;;;14.20;97.30;;;;;;5033648;28;20044;-68
2023/06/01 03:03:26;;;;;;;18.13;5.25;;;14.40;96.70;;;;;;5033981;28;20266;-68
2023/06/01 03:05:53;;;;;;;15.35;4.63;;;14.60;96.40;;;;;;5033568;28;20065;-68
2023/06/01 03:08:19;;;;;;;13.55;4.68;;;14.60;96.20;;;;;;5033896;28;20265;-68
2023/06/01 03:10:45;;;;;;;13.38;5.45;;;14.60;96.50;;;;;;5033556;28;20658;-69
2023/06/01 03:13:11;;;;;;;16.52;4.80;;;14.40;96.70;;;;;;5033430;28;20034;-69
2023/06/01 03:15:37;;;;;;;11.80;4.47;;;14.00;97.00;;;;;;5032331;28;20526;-69
2023/06/01 03:18:06;;;;;;;11.30;4.78;;;14.00;97.30;;;;;;5033771;28;20033;-68
2023/06/01 03:20:33;;;;;;;13.82;5.13;;;14.10;97.30;;;;;;5033359;28;20170;-69
2023/06/01 03:22:58;;;;;;;13.88;4.53;;;13.90;97.40;;;;;;5033439;28;20557;-68
2023/06/01 03:25:28;;;;;;;13.00;4.88;;;14.10;97.10;;;;;;5032296;28;20121;-70
2023/06/01 03:27:53;;;;;;;19.17;4.63;;;14.30;96.90;;;;;;5033477;28;20036;-68
2023/06/01 03:30:19;;;;;;;11.23;4.63;;;14.20;96.70;;;;;;5033412;28;20053;-70
2023/06/01 03:32:45;;;;;;;18.65;4.85;;;14.20;97.00;;;;;;5033695;28;20064;-69
2023/06/01 03:35:12;;;;;;;15.70;5.35;;;14.00;97.30;;;;;;5033378;28;20048;-69
2023/06/01 03:37:40;;;;;;;11.45;5.65;;;14.00;97.30;;;;;;5032360;28;20039;-69
2023/06/01 03:40:12;;;;;;;;;;;14.00;97.40;;;;;;5033678;28;20040;-71
2023/06/01 03:42:38;;;;;;;19.08;5.95;;;14.00;97.40;;;;;;5032949;28;20270;-68
2023/06/01 03:45:05;;;;;;;22.08;5.53;;;14.00;97.50;;;;;;5033410;28;20033;-69
2023/06/01 03:47:31;;;;;;;16.50;5.55;;;14.20;97.10;;;;;;5033064;28;20048;-68
2023/06/01 03:50:03;;;;;;;14.93;5.38;;;14.00;97.40;;;;;;5033180;28;20037;-69
2023/06/01 03:52:30;;;;;;;19.98;7.00;;;14.00;97.60;;;;;;5032013;28;20041;-69
2023/06/01 03:54:56;;;;;;;16.38;6.38;;;13.80;97.90;;;;;;5033024;28;20125;-69
2023/06/01 03:57:23;;;;;;;13.00;5.78;;;13.80;98.50;;;;;;5033459;28;20148;-70
2023/06/01 03:59:48;;;;;;;15.07;5.45;;;13.60;98.50;;;;;;5032874;28;20445;-67
2023/06/01 04:02:14;;;;;;;16.48;6.55;;;13.80;98.30;;;;;;5032682;28;20463;-70
2023/06/01 04:04:45;;;;;;;25.33;6.75;;;13.90;98.10;;;;;;5032767;28;20029;-69
2023/06/01 04:07:14;;;;;;;17.45;6.53;;;13.90;98.00;;;;;;5032631;28;20037;-69
2023/06/01 04:09:43;;;;;;;16.05;5.15;;;14.10;97.80;;;;;;5032561;28;20014;-70
2023/06/01 04:12:13;;;;;;;24.00;5.63;;;14.10;97.70;;;;;;5033130;28;20034;-70
2023/06/01 04:14:39;;;;;;;15.68;6.07;;;14.00;98.00;;;;;;5032301;28;20037;-69
2023/06/01 04:17:06;;;;;;;11.15;5.78;;;13.90;98.10;;;;;;5031345;28;20506;-69
2023/06/01 04:19:33;;;;;;;13.77;5.30;;;13.90;98.30;;;;;;5032510;28;20124;-69
2023/06/01 04:21:59;;;;;;;13.57;5.43;;;13.90;98.20;;;;;;5032332;28;20202;-69
2023/06/01 04:24:25;;;;;;;12.55;6.68;;;14.00;98.20;;;;;;5032681;28;20448;-69
2023/06/01 04:26:50;;;;;;;16.15;5.50;;;14.00;98.00;;;;;;5032365;28;20377;-68
2023/06/01 04:29:19;;;;;;;8.68;4.32;;;14.20;97.90;;;;;;5032006;28;20077;-68
2023/06/01 04:31:47;;;;;;;10.02;5.10;;;14.20;97.80;;;;;;5031964;28;20037;-69
2023/06/01 04:34:13;;;;;;;16.08;4.93;;;14.20;98.20;;;;;;5031955;28;20099;-70
2023/06/01 04:36:39;;;;;;;13.20;5.28;;;14.20;98.00;;;;;;5030797;28;20033;-69
2023/06/01 04:39:07;;;;;;;9.38;4.65;;;14.20;98.20;;;;;;5032283;28;20397;-69
2023/06/01 04:41:35;;;;;;;13.93;4.95;;;14.20;98.10;;;;;;5032093;28;20034;-69
2023/06/01 04:44:05;;;;;;;9.93;4.93;;;14.40;97.80;;;;;;5031623;28;20387;-69
2023/06/01 04:46:32;;;;;;;11.70;4.75;;;14.40;97.90;;;;;;5031861;28;20383;-68
2023/06/01 04:48:59;;;;;;;9.45;4.05;;;14.50;97.60;;;;;;5030376;28;20041;-70
2023/06/01 04:51:26;;;;;;;11.68;3.83;;;14.30;98.00;;;;;;5032059;28;20032;-68
2023/06/01 04:53:53;;;;;;;11.10;3.70;;;14.20;98.10;;;;;;5031661;28;20648;-68
2023/06/01 04:56:24;;;;;;;15.07;4.10;;;14.20;98.00;;;;;;5031554;28;20742;-69
2023/06/01 04:58:51;;;;;;;10.70;4.18;;;14.40;97.80;;;;;;5031581;28;20042;-68
2023/06/01 05:01:17;;;;;;;10.43;4.00;;;14.50;97.80;;;;;;5031272;28;20034;-69
2023/06/01 05:03:45;;;;;;;7.50;3.50;;;14.40;97.80;;;;;;5030241;28;20124;-68
2023/06/01 05:06:12;;;;;;;8.13;3.50;;;14.40;97.90;;;;;;5031840;28;20032;-68
2023/06/01 05:08:41;;;;;;;10.30;3.78;;;14.50;97.80;;;;;;5031560;28;20348;-69
2023/06/01 05:11:08;;;;;;;8.52;3.80;;;14.50;97.70;;;;;;5031461;28;20124;-70
2023/06/01 05:13:40;;;;;;;8.25;4.55;;;14.40;98.00;;;;;;5031334;28;20486;-69
2023/06/01 05:16:08;;;;;;;9.77;3.53;;;14.20;98.30;;;;;;5030015;28;20555;-70
2023/06/01 05:18:34;;;;;;;9.23;3.83;;;14.40;98.10;;;;;;5030849;28;20104;-71
2023/06/01 05:21:00;;;;;;;11.05;4.30;;;14.40;98.00;;;;;;5031289;28;20513;-71
2023/06/01 05:23:28;;;;;;;9.15;4.15;;;14.40;97.80;;;;;;5030823;28;20030;-70
2023/06/01 05:26:01;;;;;;;12.70;3.83;;;14.10;98.10;;;;;;5030985;28;20443;-70
2023/06/01 05:28:28;;;;;;;9.68;3.90;;;14.00;98.30;;;;;;5031256;28;20049;-71
2023/06/01 05:30:54;;;;;;;10.00;3.72;;;14.00;98.60;;;;;;5030988;28;20120;-68
2023/06/01 05:33:19;;;;;;;11.75;3.83;;;14.30;98.20;;;;;;5031541;28;20112;-70
2023/06/01 05:35:45;;;;;;;12.45;4.05;;;14.50;97.90;;;;;;5031093;28;20571;-71
2023/06/01 05:38:11;;;;;;;12.23;4.55;;;14.70;97.60;;;;;;5031378;28;20037;-69
2023/06/01 05:40:36;;;;;;;13.43;4.72;;;14.70;97.40;;;;;;5031508;28;20083;-70
2023/06/01 05:43:02;;;;;;;9.15;4.28;;;14.60;97.60;;;;;;5031622;28;20475;-69
2023/06/01 05:45:27;;;;;;;15.18;4.35;;;14.50;97.90;;;;;;5031137;28;20040;-69
2023/06/01 05:47:55;;;;;;;13.57;4.85;;;14.60;97.70;;;;;;5031042;28;20025;-68
2023/06/01 05:50:20;;;;;;;8.73;4.13;;;14.50;98.10;;;;;;5031429;28;20059;-68
2023/06/01 05:52:46;;;;;;;17.45;5.40;;;14.70;97.80;;;;;;5031985;28;20055;-68
2023/06/01 05:55:11;;;;;;;11.02;4.72;;;14.80;97.60;;;;;;5031208;28;20068;-69
2023/06/01 05:57:37;;;;;;;10.13;4.93;;;15.10;97.50;;;;;;5031052;28;20513;-66
2023/06/01 06:00:09;;;;;;;16.10;5.07;;;14.90;97.40;;;;;;5032595;28;20025;-67
2023/06/01 06:02:35;;;;;;;10.98;4.82;;;14.90;97.50;;;;;;5033354;28;20101;-68
2023/06/01 06:05:01;;;;;;;15.07;4.72;;;14.90;97.30;;;;;;5032924;28;20042;-69
2023/06/01 06:07:26;;;;;;;16.05;5.10;;;14.70;97.70;;;;;;5033031;28;20040;-68
2023/06/01 06:09:52;;;;;;;15.45;5.00;;;14.80;97.50;;;;;;5031599;28;20018;-68
2023/06/01 06:12:18;;;;;;;9.57;4.95;;;14.80;97.40;;;;;;5033218;28;20372;-68
2023/06/01 06:14:43;;;;;;;12.57;5.60;;;14.70;97.40;;;;;;5033837;28;20033;-68
2023/06/01 06:17:09;;;;;;;14.60;5.40;;;14.90;97.50;;;;;;5033469;28;20037;-68
2023/06/01 06:19:35;;;;;;;15.05;5.05;;;14.90;97.40;;;;;;5033924;28;20072;-68
2023/06/01 06:22:00;;;;;;;11.32;5.75;;;14.90;97.40;;;;;;5033017;28;20033;-68
2023/06/01 06:24:26;;;;;;;14.63;5.43;;;15.00;97.50;;;;;;5032712;28;20048;-68
2023/06/01 06:26:52;;;;;;;24.33;5.68;;;14.90;97.50;;;;;;5032229;28;20057;-70
2023/06/01 06:29:17;;;;;;;18.50;5.75;;;14.90;97.70;;;;;;5030541;28;20061;-69
2023/06/01 06:31:44;;;;;;;16.10;5.80;;;14.80;97.70;;;;;;5030559;28;20459;-69
2023/06/01 06:34:12;;;;;;;15.43;5.68;;;14.80;97.50;;;;;;5030152;28;20106;-69
2023/06/01 06:36:38;;;;;;;18.88;6.20;;;14.90;97.60;;;;;;5029270;28;20386;-67
2023/06/01 06:39:04;;;;;;;18.42;6.45;;;14.60;97.70;;;;;;5031133;28;20018;-68
2023/06/01 06:41:30;;;;;;;22.95;7.10;;;14.70;97.90;;;;;;5030338;28;20530;-69
2023/06/01 06:43:57;;;;;;;19.05;6.78;;;14.70;97.70;;;;;;5029277;28;20033;-68
2023/06/01 06:46:23;;;;;;;21.05;6.68;;;14.80;97.50;;;;;;5030449;28;20281;-69
2023/06/01 06:48:48;;;;;;;13.82;6.38;;;14.90;97.40;;;;;;5029209;28;20041;-69
2023/06/01 06:51:14;;;;;;;12.75;5.68;;;14.90;97.20;;;;;;5030684;28;20022;-68
2023/06/01 06:53:40;;;;;;;14.63;5.30;;;15.00;97.10;;;;;;5030212;28;20124;-69
2023/06/01 06:56:06;;;;;;;14.23;5.97;;;14.90;97.10;;;;;;5030120;28;20187;-68
2023/06/01 06:58:31;;;;;;;13.90;6.10;;;15.10;96.80;;;;;;5030310;28;20036;-68
2023/06/01 07:00:57;;;;;;;14.68;6.40;;;15.20;96.60;;;;;;5032213;28;20371;-69
2023/06/01 07:03:23;;;;;;;13.82;7.18;;;15.30;96.40;;;;;;5034158;28;20124;-69
2023/06/01 07:05:48;;;;;;;19.75;7.93;;;15.40;96.50;;;;;;5032499;28;20104;-69
2023/06/01 07:08:15;;;;;;;21.13;8.90;;;15.40;96.40;;;;;;5032536;28;20021;-70
2023/06/01 07:10:40;;;;;;;15.52;7.50;;;15.50;96.20;;;;;;5032468;28;20036;-69
2023/06/01 07:13:06;;;;;;;20.63;8.07;;;15.50;96.20;;;;;;5033519;28;20026;-68
2023/06/01 07:15:31;;;;;;;19.00;8.93;;;15.60;96.20;;;;;;5032007;28;20383;-69
2023/06/01 07:17:57;;;;;;;22.90;9.25;;;15.60;96.20;;;;;;5033818;28;20026;-68
2023/06/01 07:20:23;;;;;;;22.38;8.93;;;15.50;96.20;;;;;;5032203;28;20508;-69
2023/06/01 07:22:49;;;;;;;23.10;10.10;;;15.40;96.20;;;;;;5033001;28;20029;-68
2023/06/01 07:25:16;;;;;;;20.65;9.77;;;15.40;96.50;;;;;;5033172;28;20485;-69
2023/06/01 07:27:43;;;;;;;20.52;9.13;;;15.30;96.70;;;;;;5032961;28;20045;-69
2023/06/01 07:30:10;;;;;;;20.83;9.47;;;15.10;96.70;;;;;;5033118;28;20037;-69
2023/06/01 07:32:36;;;;;;;21.38;9.38;;;15.00;96.80;;;;;;5031502;28;20025;-68
2023/06/01 07:35:04;;;;;;;25.13;9.63;;;15.10;97.00;;;;;;5031429;28;20386;-69
2023/06/01 07:37:31;;;;;;;18.70;8.10;;;15.00;96.90;;;;;;5032710;28;20040;-68
2023/06/01 07:39:57;;;;;;;22.98;8.00;;;15.10;96.80;;;;;;5031578;28;20129;-68
2023/06/01 07:42:23;;;;;;;16.60;8.00;;;15.10;96.70;;;;;;5032886;28;20104;-69
2023/06/01 07:44:50;;;;;;;17.10;8.38;;;15.20;96.70;;;;;;5031477;28;20091;-69
2023/06/01 07:47:16;;;;;;;16.70;8.02;;;15.20;96.70;;;;;;5032473;28;20029;-69
2023/06/01 07:49:41;;;;;;;20.05;8.70;;;15.20;96.70;;;;;;5031440;28;20033;-68
2023/06/01 07:52:07;;;;;;;17.15;7.53;;;15.40;96.50;;;;;;5031332;28;20037;-69
2023/06/01 07:54:37;;;;;;;22.23;8.43;;;15.30;96.60;;;;;;5032370;28;20155;-68
2023/06/01 07:57:06;;;;;;;22.48;8.80;;;15.50;96.30;;;;;;5032662;28;20018;-68
2023/06/01 07:59:32;;;;;;;22.20;9.38;;;15.60;96.10;;;;;;5032176;28;20030;-69
2023/06/01 08:01:59;;;;;;;18.50;8.93;;;15.50;96.30;;;;;;5032235;28;20040;-68
2023/06/01 08:04:26;;;;;;;18.08;8.30;;;15.50;96.30;;;;;;5032147;28;20507;-67
2023/06/01 08:06:55;;;;;;;19.30;7.47;;;15.30;96.50;;;;;;5031061;28;20053;-68
2023/06/01 08:09:23;;;;;;;20.73;7.85;;;15.30;96.50;;;;;;5031290;28;20029;-68
2023/06/01 08:11:50;;;;;;;14.80;6.72;;;15.20;96.70;;;;;;5031262;28;20037;-70
2023/06/01 08:14:16;;;;;;;15.45;7.20;;;15.40;96.50;;;;;;5031897;28;20029;-69
2023/06/01 08:16:42;;;;;;;19.67;6.20;;;15.30;96.30;;;;;;5031917;28;20112;-69
2023/06/01 08:19:08;;;;;;;18.88;6.50;;;15.30;96.60;;;;;;5032010;28;20124;-69
2023/06/01 08:21:34;;;;;;;17.10;6.85;;;15.10;96.70;;;;;;5031777;28;20100;-69
2023/06/01 08:24:01;;;;;;;12.77;6.88;;;15.10;96.70;;;;;;5032310;28;20014;-67
2023/06/01 08:26:27;;;;;;;12.15;6.30;;;15.30;96.60;;;;;;5032198;28;20061;-69
2023/06/01 08:28:53;;;;;;;11.93;6.25;;;15.40;96.40;;;;;;5031613;28;20073;-69
2023/06/01 08:31:20;;;;;;;12.23;6.25;;;15.30;96.60;;;;;;5031811;28;20065;-69
2023/06/01 08:33:48;;;;;;;15.40;6.32;;;15.40;96.30;;;;;;5031825;28;20637;-69
2023/06/01 08:36:13;;;;;;;10.48;5.53;;;15.40;96.60;;;;;;5030885;28;20460;-70
2023/06/01 08:38:40;;;;;;;17.92;6.78;;;15.60;96.40;;;;;;5031684;28;20033;-69
2023/06/01 08:41:20;;;;;;;16.38;7.05;;;15.80;96.10;;;;;;5031779;28;20026;-69
2023/06/01 08:44:01;;;;;;;17.23;6.85;;;16.10;95.90;;;;;;5031542;28;20030;-69
2023/06/01 08:46:29;;;;;;;13.15;6.00;;;16.10;95.80;;;;;;5031508;28;20467;-69
2023/06/01 08:48:57;;;;;;;19.77;5.72;;;16.10;95.80;;;;;;5031371;28;20187;-70
2023/06/01 08:51:24;;;;;;;18.60;5.72;;;16.00;96.00;;;;;;5031846;28;20022;-69
2023/06/01 08:53:51;;;;;;;10.55;5.43;;;16.00;96.10;;;;;;5031607;28;20040;-70
2023/06/01 08:56:17;;;;;;;15.82;6.03;;;16.00;96.10;;;;;;5031470;28;20093;-67
2023/06/01 08:58:46;;;;;;;24.83;6.22;;;16.00;96.30;;;;;;5031247;28;20045;-70
2023/06/01 09:01:23;;;;;;;14.05;5.18;;;15.90;96.30;;;;;;5031317;28;20099;-68
2023/06/01 09:03:51;;;;;;;18.80;4.72;;;15.60;96.70;;;;;;5030053;28;20099;-68
2023/06/01 09:06:17;;;;;;;10.13;4.10;;;15.50;96.80;;;;;;5031547;28;20025;-68
2023/06/01 09:08:44;;;;;;;11.23;6.07;;;15.60;96.90;;;;;;5030938;28;20037;-69
2023/06/01 09:11:10;;;;;;;6.80;3.60;;;15.80;96.80;;;;;;5029797;28;20041;-69
2023/06/01 09:13:40;;;;;;;8.25;4.05;;;15.70;96.60;;;;;;5030026;28;20432;-68
2023/06/01 09:16:07;;;;;;;10.27;3.58;;;15.60;96.60;;;;;;5030989;28;20041;-69
2023/06/01 09:18:33;;;;;;;12.95;5.10;;;15.80;96.50;;;;;;5029659;28;20091;-68
2023/06/01 09:21:18;;;;;;;6.68;3.50;;;15.90;96.40;;;;;;5031111;28;20029;-69
2023/06/01 09:23:44;;;;;;;6.50;3.15;;;15.60;96.60;;;;;;5029919;28;20039;-69
2023/06/01 09:26:12;;;;;;;5.43;2.83;;;15.80;96.40;;;;;;5029764;28;20045;-69
2023/06/01 09:29:00;;;;;;;5.85;3.22;;;16.00;96.40;;;;;;5030563;28;20047;-68
2023/06/01 09:31:35;;;;;;;;;;;15.80;96.40;;;;;;5031175;28;20129;-69
2023/06/01 09:34:01;;;;;;;7.15;3.25;;;15.90;96.30;;;;;;5030620;28;20402;-68
2023/06/01 09:36:27;;;;;;;6.55;2.90;;;16.10;96.20;;;;;;5030539;28;20033;-68
2023/06/01 09:39:19;;;;;;;9.02;2.65;;;16.10;96.10;;;;;;5030949;28;20035;-69
2023/06/01 09:41:58;;;;;;;8.07;2.70;;;16.20;95.90;;;;;;5030433;28;20029;-69
2023/06/01 09:44:32;;;;;;;4.45;2.50;;;16.20;95.80;;;;;;5030381;28;20025;-69
2023/06/01 09:47:04;;;;;;;10.00;5.30;;;16.30;95.90;;;;;;5029463;28;20034;-69
2023/06/01 09:49:31;;;;;;;8.18;4.68;;;16.40;95.70;;;;;;5030443;28;20038;-68
2023/06/01 09:52:06;;;;;;;10.68;2.97;;;16.30;95.70;;;;;;5030480;28;20250;-68
2023/06/01 09:54:46;;;;;;;10.48;3.50;;;16.10;95.90;;;;;;5030344;28;20344;-67
2023/06/01 09:57:12;;;;;;;7.88;3.10;;;16.20;95.90;;;;;;5029741;28;20018;-68
2023/06/01 09:59:46;;;;;;;7.43;2.33;;;16.30;96.00;;;;;;5030811;28;20436;-68
2023/06/01 10:02:33;;;;;;;6.50;2.90;;;16.30;95.80;;;;;;5030481;28;20459;-69
2023/06/01 10:05:00;;;;;;;5.85;2.58;;;16.30;95.80;;;;;;5029180;28;20038;-69
2023/06/01 10:07:33;;;;;;;5.13;2.00;;;16.50;95.70;;;;;;5030260;28;20091;-68
2023/06/01 10:10:02;;;;;;;3.88;2.45;;;16.40;95.70;;;;;;5030354;28;20116;-68
2023/06/01 10:12:28;;;;;;;7.68;2.80;;;16.40;95.80;;;;;;5030236;28;20504;-68
2023/06/01 10:14:55;;;;;;;5.75;2.60;;;16.30;95.80;;;;;;5030762;28;20026;-69
2023/06/01 10:17:22;;;;;;;3.75;2.33;;;16.30;96.10;;;;;;5029206;28;20037;-68
2023/06/01 10:19:48;;;;;;;4.60;2.50;;;16.10;96.20;;;;;;5030418;28;20028;-69
2023/06/01 10:22:14;;;;;;;6.85;2.90;;;16.10;96.10;;;;;;5030143;28;20052;-68
2023/06/01 10:24:41;;;;;;;10.98;4.68;;;16.20;96.30;;;;;;5030085;28;20163;-68
2023/06/01 10:27:14;;;;;;;5.90;3.50;;;16.30;96.30;;;;;;5030687;28;20022;-69
2023/06/01 10:29:41;;;;;;;6.72;2.80;;;16.50;95.90;;;;;;5030006;28;20085;-70
2023/06/01 10:32:40;;;;;;;4.13;2.38;;;16.80;95.70;;;;;;5030178;28;20110;-69
2023/06/01 10:35:12;;;;;;;3.78;1.90;;;16.70;95.60;;;;;;5029581;28;20459;-69
2023/06/01 10:37:38;;;;;;;4.53;2.28;;;16.70;95.60;;;;;;5033951;28;20053;-70
2023/06/01 10:40:30;;;;;;;7.30;2.50;;;16.10;96.10;;;;;;5034070;28;20367;-69
2023/06/01 10:42:55;;;;;;;3.67;1.98;;;16.30;96.20;;;;;;5033514;28;20037;-69
2023/06/01 10:45:38;;;;;;;3.58;2.13;;;16.30;96.20;;;;;;5033970;28;20174;-69
2023/06/01 10:48:10;;;;;;;5.40;1.88;;;16.50;96.00;;;;;;5033729;28;20368;-69
2023/06/01 10:50:37;;;;;;;2.08;1.75;;;16.70;95.80;;;;;;5032373;28;20444;-69
2023/06/01 10:53:29;;;;;;;3.88;2.10;;;16.70;95.80;;;;;;5033352;28;20048;-68
2023/06/01 10:56:17;;;;;;;9.88;4.20;;;16.70;95.60;;;;;;5033528;28;20053;-68
2023/06/01 10:58:42;;;;;;;4.32;2.33;;;16.50;95.80;;;;;;5033818;28;20038;-67
2023/06/01 11:01:10;;;;;;;4.95;1.88;;;16.30;96.10;;;;;;5033192;28;20163;-68
2023/06/01 11:03:44;;;;;;;3.72;1.73;;;16.40;96.20;;;;;;5033397;28;20029;-68
2023/06/01 11:06:30;;;;;;;3.00;2.28;;;16.50;96.00;;;;;;5033534;28;20083;-68
2023/06/01 11:08:58;;;;;;;5.90;2.35;;;16.40;96.30;;;;;;5033618;28;20048;-69
2023/06/01 11:11:43;;;;;;;;;;;16.60;96.00;;;;;;5032026;28;20033;-69
2023/06/01 11:14:11;;;;;;;3.95;2.03;;;16.70;95.70;;;;;;5032786;28;19908;-69
2023/06/01 11:16:36;;;;;;;3.75;2.00;;;16.80;95.70;;;;;;5033165;28;20335;-69
2023/06/01 11:19:04;;;;;;;3.80;2.53;;;16.80;95.60;;;;;;5031729;28;20124;-69
2023/06/01 11:21:36;;;;;;;10.80;3.10;;;16.50;95.90;;;;;;5032835;28;20037;-70
2023/06/01 11:24:12;;;;;;;5.43;2.45;;;16.60;96.00;;;;;;5033252;28;20029;-69
2023/06/01 11:26:43;;;;;;;4.40;2.40;;;16.60;96.00;;;;;;5032903;28;20499;-69
2023/06/01 11:29:15;;;;;;;12.27;3.45;;;16.40;96.20;;;;;;5032963;28;20058;-69
2023/06/01 11:31:46;;;;;;;9.73;3.70;;;16.30;96.50;;;;;;5032835;28;20029;-68
2023/06/01 11:34:13;;;;;;;4.93;2.60;;;16.40;96.50;;;;;;5032639;28;20049;-67
2023/06/01 11:36:43;;;;;;;4.53;2.72;;;16.50;96.40;;;;;;5032657;28;20122;-68
2023/06/01 11:39:24;;;;;;;4.88;2.85;;;16.60;96.20;;;;;;5032002;28;20018;-69
2023/06/01 11:42:05;;;;;;;4.93;2.80;;;16.50;96.30;;;;;;5032576;28;20030;-68
2023/06/01 11:44:31;;;;;;;7.07;2.47;;;16.70;96.20;;;;;;5032456;28;20041;-68
2023/06/01 11:46:58;;;;;;;10.10;3.15;;;16.40;96.40;;;;;;5031907;28;20041;-69
2023/06/01 11:49:24;;;;;;;10.70;3.30;;;16.20;96.80;;;;;;5032439;28;20091;-69
2023/06/01 11:51:51;;;;;;;4.95;3.17;;;16.30;96.90;;;;;;5032540;28;20463;-69
2023/06/01 11:54:28;;;;;;;7.05;2.83;;;16.40;96.80;;;;;;5032819;28;20126;-70
2023/06/01 11:56:55;;;;;;;7.00;3.13;;;16.60;96.50;;;;;;5032615;28;20449;-69
2023/06/01 11:59:21;;;;;;;3.73;2.93;;;16.60;96.40;;;;;;5032577;28;20100;-68
2023/06/01 12:01:48;;;;;;;4.63;3.15;;;16.70;96.30;;;;;;5032546;28;20037;-69
2023/06/01 12:04:23;;;;;;;4.05;2.50;;;16.80;96.20;;;;;;5032054;28;20615;-68
2023/06/01 12:06:49;;;;;;;9.25;4.07;;;16.90;96.10;;;;;;5032215;28;20065;-69
2023/06/01 12:09:16;;;;;;;4.72;3.20;;;16.60;96.20;;;;;;5032499;28;20474;-69
2023/06/01 12:11:44;;;;;;;10.70;3.67;;;16.50;96.30;;;;;;5031985;28;20029;-70
2023/06/01 12:14:11;;;;;;;6.55;3.50;;;16.40;96.70;;;;;;5032020;28;20037;-69
2023/06/01 12:17:00;;;;;;;7.03;3.13;;;16.40;96.60;;;;;;5032049;28;20041;-68
2023/06/01 12:19:31;;;;;;;5.35;3.10;;;16.60;96.50;;;;;;5031878;28;20033;-69
2023/06/01 12:21:58;;;;;;;8.25;3.60;;;16.50;96.30;;;;;;5031880;28;20103;-70
2023/06/01 12:24:32;;;;;;;8.65;3.25;;;16.80;96.10;;;;;;5032249;28;20036;-71
2023/06/01 12:26:59;;;;;;;11.73;3.58;;;17.00;95.70;;;;;;5031917;28;20056;-69
2023/06/01 12:29:39;;;;;;;10.52;4.30;;;17.10;95.50;;;;;;5031573;28;20340;-70
2023/06/01 12:32:05;;;;;;;6.55;3.70;;;17.10;95.30;;;;;;5031527;28;20079;-69
2023/06/01 12:34:31;;;;;;;6.90;3.30;;;17.20;95.10;;;;;;5031306;28;20366;-69
2023/06/01 12:36:57;;;;;;;8.15;4.00;;;17.00;94.90;;;;;;5031226;28;20121;-69
2023/06/01 12:39:39;;;;;;;8.90;4.07;;;16.90;95.00;;;;;;5032139;28;20116;-71
2023/06/01 12:42:06;;;;;;;6.07;3.28;;;17.10;95.20;;;;;;5031817;28;20048;-70
2023/06/01 12:44:35;;;;;;;8.88;3.92;;;17.10;95.00;;;;;;5031342;28;20456;-70
2023/06/01 12:47:01;;;;;;;6.47;3.13;;;17.10;94.80;;;;;;5031313;28;20371;-69
2023/06/01 12:49:27;;;;;;;7.95;2.85;;;17.10;95.00;;;;;;5031122;28;20132;-70